Time;durP1;ratioP1;P1;durP2;ratioP2;P2;SDS_P1;SDS_P2;PMS_P1;PMS_P2;Temp;Humidity;BMP_temperature;BMP_pressure;BME280_temperature;BME280_humidity;BME280_pressure;Samples;Min_cycle;Max_cycle;Signal;HPM_P1;HPM_P2
2023/06/13 00:00:11;;;;;;;4.75;1.88;;;17.50;99.90;;;;;;4935894;29;20107;-76
2023/06/13 00:02:40;;;;;;;3.75;1.95;;;17.50;99.90;;;;;;4950622;28;20040;-77
2023/06/13 00:08:44;;;;;;;2.58;1.77;;;17.40;99.90;;;;;;5152356;23;20049;-76
2023/06/13 00:11:10;;;;;;;4.55;2.10;;;17.40;99.90;;;;;;4989436;28;20035;-76
2023/06/13 00:13:38;;;;;;;8.15;2.13;;;17.40;99.90;;;;;;4993717;28;20110;-78
2023/06/13 00:16:05;;;;;;;5.80;2.08;;;17.50;99.90;;;;;;4992900;28;20057;-76
2023/06/13 00:18:32;;;;;;;5.93;2.05;;;17.50;99.90;;;;;;4993006;28;20026;-77
2023/06/13 00:20:59;;;;;;;5.57;2.20;;;17.50;99.90;;;;;;4993231;28;20105;-77
2023/06/13 00:23:26;;;;;;;5.88;2.42;;;17.50;99.90;;;;;;4974766;28;20400;-77
2023/06/13 00:25:53;;;;;;;6.18;2.55;;;17.60;99.90;;;;;;4993269;28;20540;-77
2023/06/13 00:28:19;;;;;;;4.95;2.20;;;17.60;99.90;;;;;;4992613;28;20371;-76
2023/06/13 00:30:45;;;;;;;4.40;2.17;;;17.50;99.90;;;;;;4991738;28;20555;-77
2023/06/13 00:33:18;;;;;;;5.35;2.20;;;17.50;99.90;;;;;;4974721;28;20042;-78
2023/06/13 00:35:46;;;;;;;7.75;3.03;;;17.50;99.90;;;;;;4975554;28;20034;-78
2023/06/13 00:38:12;;;;;;;5.90;2.30;;;17.40;99.90;;;;;;4992949;28;20034;-77
2023/06/13 00:40:41;;;;;;;7.22;2.63;;;17.40;99.90;;;;;;4975435;28;20044;-77
2023/06/13 00:43:07;;;;;;;5.40;2.30;;;17.30;99.90;;;;;;4975603;28;20117;-76
2023/06/13 00:45:33;;;;;;;3.83;2.35;;;17.30;99.90;;;;;;4992919;28;20041;-75
2023/06/13 00:48:01;;;;;;;8.30;2.42;;;17.40;99.90;;;;;;4992950;28;20114;-78
2023/06/13 00:50:34;;;;;;;5.72;2.75;;;17.40;99.90;;;;;;4991563;28;20121;-75
2023/06/13 00:53:03;;;;;;;4.93;2.15;;;17.40;99.90;;;;;;4975338;28;20080;-77
2023/06/13 00:55:30;;;;;;;5.90;2.40;;;17.40;99.90;;;;;;4992560;28;20069;-77
2023/06/13 00:57:58;;;;;;;7.70;2.92;;;17.30;99.90;;;;;;4992607;28;20456;-77
2023/06/13 01:00:26;;;;;;;7.13;2.35;;;17.30;99.90;;;;;;4992923;28;20425;-77
2023/06/13 01:02:55;;;;;;;7.00;2.60;;;17.30;99.90;;;;;;4975123;28;20061;-77
2023/06/13 01:05:26;;;;;;;12.60;2.50;;;17.20;99.90;;;;;;4992945;28;20026;-74
2023/06/13 01:07:57;;;;;;;8.60;2.07;;;17.30;99.90;;;;;;4992216;28;20141;-78
2023/06/13 01:10:29;;;;;;;11.38;2.47;;;17.10;99.90;;;;;;4992695;28;20031;-76
2023/06/13 01:13:18;;;;;;;3.42;1.75;;;17.10;99.90;;;;;;4992425;28;20081;-76
2023/06/13 01:15:56;;;;;;;5.70;2.13;;;17.10;99.90;;;;;;4992327;28;20464;-78
2023/06/13 01:18:24;;;;;;;5.50;2.28;;;17.10;99.90;;;;;;4975093;28;20121;-75
2023/06/13 01:20:56;;;;;;;6.53;2.13;;;17.10;99.90;;;;;;4992712;28;20014;-78
2023/06/13 01:23:58;;;;;;;4.85;2.22;;;17.10;99.90;;;;;;4974587;28;20034;-78
2023/06/13 01:26:36;;;;;;;6.38;2.25;;;17.10;99.90;;;;;;4974989;28;20034;-76
2023/06/13 01:29:04;;;;;;;3.40;2.47;;;17.20;99.90;;;;;;4974832;28;20037;-76
2023/06/13 01:31:32;;;;;;;12.73;2.70;;;17.30;99.90;;;;;;4974519;28;20037;-74
2023/06/13 01:33:59;;;;;;;5.95;2.88;;;17.20;99.90;;;;;;4974968;28;20137;-77
2023/06/13 01:36:25;;;;;;;4.25;2.17;;;17.20;99.90;;;;;;4974641;28;20030;-77
2023/06/13 01:38:53;;;;;;;30.42;2.72;;;17.20;99.90;;;;;;4976429;28;20039;-77
2023/06/13 01:41:19;;;;;;;4.75;2.42;;;17.10;99.90;;;;;;4978608;28;20030;-76
2023/06/13 01:43:45;;;;;;;5.68;2.47;;;17.10;99.90;;;;;;4996114;28;20022;-77
2023/06/13 01:46:24;;;;;;;5.03;2.60;;;17.00;99.90;;;;;;4977026;28;20035;-77
2023/06/13 01:49:09;;;;;;;5.97;3.13;;;17.10;99.90;;;;;;4992674;28;20033;-78
2023/06/13 01:52:03;;;;;;;7.07;2.38;;;17.10;99.90;;;;;;4978492;28;20055;-76
2023/06/13 01:54:33;;;;;;;7.93;2.38;;;16.90;99.90;;;;;;4985608;28;20030;-75
2023/06/13 01:57:03;;;;;;;11.52;2.53;;;16.70;99.90;;;;;;4982608;28;20117;-78
2023/06/13 01:59:32;;;;;;;5.57;2.30;;;16.90;99.90;;;;;;4978457;28;20030;-78
2023/06/13 02:01:58;;;;;;;4.63;2.75;;;16.90;99.90;;;;;;4965666;28;20026;-76
2023/06/13 02:04:26;;;;;;;7.50;2.53;;;16.80;99.90;;;;;;4995848;28;20050;-76
2023/06/13 02:06:51;;;;;;;4.82;2.60;;;16.80;99.90;;;;;;4982743;28;20097;-78
2023/06/13 02:09:17;;;;;;;6.60;2.60;;;16.70;99.90;;;;;;4977560;28;20422;-78
2023/06/13 02:11:44;;;;;;;7.85;3.15;;;16.80;99.90;;;;;;4995816;28;20105;-76
2023/06/13 02:14:10;;;;;;;5.00;2.58;;;16.70;99.90;;;;;;4976148;28;20134;-78
2023/06/13 02:16:39;;;;;;;3.30;1.85;;;16.60;99.90;;;;;;4977022;28;20078;-78
2023/06/13 02:19:07;;;;;;;7.03;2.30;;;16.50;99.90;;;;;;4962475;28;20022;-78
2023/06/13 02:21:33;;;;;;;5.97;2.22;;;16.60;99.90;;;;;;4979356;28;20099;-79
2023/06/13 02:23:59;;;;;;;4.25;2.35;;;16.70;99.90;;;;;;4979948;28;20023;-78
2023/06/13 02:26:28;;;;;;;4.43;2.17;;;16.70;99.90;;;;;;4977704;28;20039;-78
2023/06/13 02:28:57;;;;;;;5.50;2.20;;;16.60;99.90;;;;;;4995594;28;20048;-77
2023/06/13 02:31:24;;;;;;;9.88;2.30;;;16.50;99.90;;;;;;4995448;28;20110;-77
2023/06/13 02:33:49;;;;;;;5.65;2.75;;;16.60;99.90;;;;;;4977515;28;20117;-75
2023/06/13 02:36:15;;;;;;;3.60;2.28;;;16.50;99.90;;;;;;4977754;28;20118;-75
2023/06/13 02:38:43;;;;;;;7.43;2.63;;;16.60;99.90;;;;;;5001920;28;20057;-76
2023/06/13 02:41:09;;;;;;;3.60;2.17;;;16.60;99.90;;;;;;4977980;28;20042;-78
2023/06/13 02:43:35;;;;;;;5.32;2.28;;;16.70;99.90;;;;;;4977608;28;20030;-78
2023/06/13 02:46:02;;;;;;;3.33;2.20;;;16.70;99.90;;;;;;4970547;28;20049;-78
2023/06/13 02:48:28;;;;;;;5.32;2.38;;;16.70;99.90;;;;;;4988510;28;20104;-77
2023/06/13 02:50:54;;;;;;;8.15;2.95;;;16.70;99.90;;;;;;4995536;28;20026;-75
2023/06/13 02:53:20;;;;;;;4.10;2.38;;;16.70;99.90;;;;;;4976542;28;20429;-78
2023/06/13 02:55:46;;;;;;;7.55;2.85;;;16.80;99.90;;;;;;4995290;28;20056;-78
2023/06/13 02:58:13;;;;;;;5.63;2.35;;;16.80;99.90;;;;;;4972370;28;20446;-79
2023/06/13 03:00:40;;;;;;;4.93;2.88;;;16.80;99.90;;;;;;4995255;28;20031;-74
2023/06/13 03:03:10;;;;;;;4.00;2.33;;;16.80;99.90;;;;;;4977235;28;20125;-78
2023/06/13 03:05:37;;;;;;;4.25;2.60;;;16.80;99.90;;;;;;4977325;28;20072;-74
2023/06/13 03:08:04;;;;;;;5.45;3.13;;;16.60;99.90;;;;;;4977011;28;20510;-74
2023/06/13 03:10:32;;;;;;;8.70;3.45;;;16.60;99.90;;;;;;4976913;28;20034;-78
2023/06/13 03:12:58;;;;;;;7.63;3.92;;;16.50;99.90;;;;;;4977064;28;20038;-78
2023/06/13 03:15:24;;;;;;;8.00;2.97;;;16.50;99.90;;;;;;4975974;28;20027;-77
2023/06/13 03:17:51;;;;;;;5.10;2.97;;;16.50;99.90;;;;;;4994589;28;20026;-75
2023/06/13 03:20:20;;;;;;;6.55;3.17;;;16.50;99.90;;;;;;4960188;28;20035;-77
2023/06/13 03:22:47;;;;;;;11.77;3.35;;;16.50;99.90;;;;;;4976941;28;20386;-77
2023/06/13 03:25:14;;;;;;;8.98;3.03;;;16.50;99.90;;;;;;4994442;28;20030;-77
2023/06/13 03:27:46;;;;;;;;;;;16.50;99.90;;;;;;4977173;28;20040;-75
2023/06/13 03:30:12;;;;;;;6.65;3.05;;;16.40;99.90;;;;;;4976493;28;19913;-79
2023/06/13 03:32:40;;;;;;;7.05;3.05;;;16.40;99.90;;;;;;4976776;28;20026;-76
2023/06/13 03:35:06;;;;;;;6.38;3.28;;;16.40;99.90;;;;;;4960422;28;20038;-78
2023/06/13 03:37:32;;;;;;;7.00;3.15;;;16.30;99.90;;;;;;4976277;28;20049;-78
2023/06/13 03:39:58;;;;;;;8.55;3.20;;;16.30;99.90;;;;;;4976219;28;20094;-74
2023/06/13 03:42:24;;;;;;;4.72;3.20;;;16.30;99.90;;;;;;4976530;28;20062;-77
2023/06/13 03:44:50;;;;;;;4.38;2.55;;;16.20;99.90;;;;;;4976257;28;20502;-76
2023/06/13 03:47:16;;;;;;;7.30;2.95;;;16.20;99.90;;;;;;4976295;28;20030;-76
2023/06/13 03:49:43;;;;;;;9.77;2.80;;;16.00;99.90;;;;;;4976434;28;20031;-78
2023/06/13 03:52:10;;;;;;;5.13;2.83;;;16.00;99.90;;;;;;4960508;28;20034;-77
2023/06/13 03:54:36;;;;;;;6.05;2.80;;;16.00;99.90;;;;;;4993812;28;20030;-78
2023/06/13 03:57:02;;;;;;;7.95;3.20;;;15.90;99.90;;;;;;4976054;28;20072;-78
2023/06/13 03:59:28;;;;;;;7.47;3.08;;;15.90;99.90;;;;;;4976259;28;20541;-76
2023/06/13 04:01:54;;;;;;;6.30;2.67;;;15.90;99.90;;;;;;4975514;28;20054;-74
2023/06/13 04:04:20;;;;;;;6.03;3.30;;;15.90;99.90;;;;;;4974053;28;20030;-76
2023/06/13 04:06:48;;;;;;;6.30;3.13;;;16.00;99.90;;;;;;4981312;28;20041;-77
2023/06/13 04:09:17;;;;;;;5.95;3.05;;;16.00;99.90;;;;;;4964619;28;20042;-76
2023/06/13 04:11:42;;;;;;;7.13;2.97;;;16.00;99.90;;;;;;4985309;28;20118;-77
2023/06/13 04:14:08;;;;;;;4.35;2.35;;;16.10;99.90;;;;;;4963348;28;20033;-73
2023/06/13 04:16:34;;;;;;;4.25;2.78;;;16.20;99.90;;;;;;4967780;28;20445;-77
2023/06/13 04:19:01;;;;;;;4.65;2.72;;;16.20;99.90;;;;;;4975786;28;20030;-75
2023/06/13 04:21:28;;;;;;;8.13;2.85;;;16.30;99.90;;;;;;4975860;28;20029;-77
2023/06/13 04:23:54;;;;;;;7.40;2.85;;;16.40;99.90;;;;;;4976086;28;20026;-75
2023/06/13 04:26:21;;;;;;;7.68;3.00;;;16.40;99.90;;;;;;4975583;28;20030;-76
2023/06/13 04:28:50;;;;;;;4.82;2.75;;;16.60;99.90;;;;;;4980593;28;20374;-76
2023/06/13 04:31:17;;;;;;;6.25;2.90;;;16.90;99.90;;;;;;4975584;28;20455;-74
2023/06/13 04:33:44;;;;;;;6.28;2.83;;;16.90;99.90;;;;;;4962036;28;20026;-77
2023/06/13 04:36:13;;;;;;;7.72;2.72;;;16.90;99.90;;;;;;4993109;28;20038;-76
2023/06/13 04:38:39;;;;;;;6.15;2.72;;;17.00;99.90;;;;;;4993260;28;20037;-76
2023/06/13 04:41:10;;;;;;;8.88;2.67;;;17.00;99.90;;;;;;4993313;28;20037;-77
2023/06/13 04:43:38;;;;;;;5.28;2.90;;;17.30;99.90;;;;;;4992870;28;20037;-76
2023/06/13 04:46:04;;;;;;;4.05;2.55;;;17.40;99.90;;;;;;4992980;28;20109;-76
2023/06/13 04:48:31;;;;;;;6.75;3.30;;;17.60;99.90;;;;;;4992816;28;20042;-77
2023/06/13 04:51:01;;;;;;;7.28;3.05;;;17.60;99.90;;;;;;4991887;28;20367;-77
2023/06/13 04:53:28;;;;;;;4.68;2.63;;;17.50;99.90;;;;;;4975058;28;20041;-78
2023/06/13 04:55:55;;;;;;;8.05;2.80;;;17.60;99.90;;;;;;4991337;28;20018;-78
2023/06/13 04:58:23;;;;;;;6.28;3.63;;;17.50;99.90;;;;;;4964498;28;20081;-78
2023/06/13 05:00:50;;;;;;;8.35;2.88;;;17.30;99.90;;;;;;4991842;28;20022;-77
2023/06/13 05:03:16;;;;;;;7.47;2.95;;;17.40;99.90;;;;;;4992515;28;20038;-77
2023/06/13 05:05:43;;;;;;;6.43;2.72;;;17.50;99.90;;;;;;4992321;28;20042;-76
2023/06/13 05:08:13;;;;;;;4.32;2.65;;;17.50;99.90;;;;;;4992647;28;20046;-77
2023/06/13 05:10:39;;;;;;;6.90;3.20;;;17.30;99.90;;;;;;4992610;28;20420;-77
2023/06/13 05:13:05;;;;;;;5.25;2.70;;;17.10;99.90;;;;;;4991090;28;20023;-77
2023/06/13 05:15:31;;;;;;;7.60;3.33;;;17.10;99.90;;;;;;4978946;28;20493;-77
2023/06/13 05:17:56;;;;;;;5.57;2.83;;;17.10;99.90;;;;;;4982822;28;20069;-78
2023/06/13 05:20:25;;;;;;;3.67;2.65;;;17.10;99.90;;;;;;4968282;28;20394;-77
2023/06/13 05:22:53;;;;;;;4.80;2.58;;;17.20;99.90;;;;;;4992193;28;20111;-77
2023/06/13 05:25:20;;;;;;;7.80;2.33;;;17.10;99.90;;;;;;4989473;28;20019;-77
2023/06/13 05:27:46;;;;;;;9.45;3.30;;;17.20;99.90;;;;;;4989012;28;20030;-77
2023/06/13 05:30:12;;;;;;;8.55;3.05;;;17.20;99.90;;;;;;4983747;28;20031;-78
2023/06/13 05:32:38;;;;;;;7.47;2.88;;;17.00;99.90;;;;;;4992270;28;20110;-78
2023/06/13 05:35:07;;;;;;;4.78;3.00;;;17.20;99.90;;;;;;4980289;28;20038;-76
2023/06/13 05:37:37;;;;;;;4.53;2.10;;;17.20;99.90;;;;;;4990695;28;20504;-77
2023/06/13 05:40:05;;;;;;;5.68;2.78;;;17.10;99.90;;;;;;4992240;28;20027;-77
2023/06/13 05:42:35;;;;;;;7.28;3.08;;;17.30;99.90;;;;;;4991163;28;20126;-77
2023/06/13 05:45:08;;;;;;;4.20;2.42;;;17.20;99.90;;;;;;4992317;28;20503;-76
2023/06/13 05:47:35;;;;;;;5.68;3.05;;;17.40;99.90;;;;;;4990244;28;20026;-77
2023/06/13 05:50:01;;;;;;;5.78;2.83;;;17.40;99.90;;;;;;4986849;28;20040;-77
2023/06/13 05:52:27;;;;;;;5.70;2.55;;;17.50;99.90;;;;;;4954533;28;20027;-77
2023/06/13 05:54:53;;;;;;;6.55;2.80;;;17.70;99.90;;;;;;4989602;28;20034;-76
2023/06/13 05:57:19;;;;;;;4.80;3.00;;;17.70;99.90;;;;;;4992166;28;20401;-78
2023/06/13 05:59:45;;;;;;;9.07;3.15;;;17.70;99.90;;;;;;4992351;28;20038;-77
2023/06/13 06:02:11;;;;;;;4.55;2.90;;;17.90;99.90;;;;;;4991829;28;20034;-77
2023/06/13 06:04:38;;;;;;;5.40;2.88;;;18.20;99.90;;;;;;4975208;28;20553;-77
2023/06/13 06:07:04;;;;;;;2.95;2.38;;;18.40;99.90;;;;;;4992113;28;20113;-77
2023/06/13 06:09:30;;;;;;;8.88;3.17;;;18.20;99.90;;;;;;4972770;28;20467;-77
2023/06/13 06:11:56;;;;;;;4.05;2.65;;;18.40;99.90;;;;;;4972789;28;20430;-77
2023/06/13 06:14:22;;;;;;;4.47;2.53;;;18.60;99.90;;;;;;4972790;28;20382;-77
2023/06/13 06:16:50;;;;;;;6.35;3.00;;;18.90;99.90;;;;;;4972667;28;20045;-77
2023/06/13 06:19:16;;;;;;;5.60;2.67;;;19.20;99.90;;;;;;4966687;28;20376;-76
2023/06/13 06:21:42;;;;;;;4.68;2.80;;;19.30;99.90;;;;;;4966037;28;20114;-77
2023/06/13 06:24:08;;;;;;;4.88;3.20;;;19.50;99.90;;;;;;4972259;28;20446;-77
2023/06/13 06:26:34;;;;;;;5.05;2.60;;;19.10;99.90;;;;;;4975476;28;20030;-77
2023/06/13 06:29:00;;;;;;;4.97;2.55;;;19.30;99.90;;;;;;4975681;28;20019;-77
2023/06/13 06:31:27;;;;;;;3.75;2.30;;;19.50;99.90;;;;;;4976289;28;20030;-76
2023/06/13 06:33:53;;;;;;;6.07;2.92;;;19.30;99.90;;;;;;4975683;28;20074;-77
2023/06/13 06:36:22;;;;;;;5.00;2.42;;;19.20;99.90;;;;;;4975928;28;20441;-77
2023/06/13 06:38:49;;;;;;;2.97;2.45;;;19.30;99.90;;;;;;4975704;28;20201;-77
2023/06/13 06:41:16;;;;;;;3.50;2.65;;;19.10;99.90;;;;;;4978902;28;20030;-77
2023/06/13 06:43:42;;;;;;;3.92;2.50;;;19.20;99.90;;;;;;4968249;28;20030;-76
2023/06/13 06:46:10;;;;;;;4.70;2.88;;;19.30;99.90;;;;;;4945034;28;20510;-77
2023/06/13 06:48:36;;;;;;;4.68;2.53;;;19.60;99.90;;;;;;4975946;28;20031;-77
2023/06/13 06:51:02;;;;;;;6.18;3.05;;;19.50;99.90;;;;;;4975549;28;20601;-77
2023/06/13 06:53:28;;;;;;;3.90;2.53;;;19.50;99.90;;;;;;4975718;28;20076;-77
2023/06/13 06:55:54;;;;;;;5.28;2.83;;;19.60;99.90;;;;;;4975249;28;20027;-76
2023/06/13 06:58:20;;;;;;;4.55;2.83;;;19.70;99.90;;;;;;4975639;28;20038;-77
2023/06/13 07:00:46;;;;;;;3.03;2.47;;;20.10;99.90;;;;;;4958033;28;20057;-76
2023/06/13 07:03:12;;;;;;;8.02;3.10;;;19.80;99.90;;;;;;4975659;28;20035;-77
2023/06/13 07:05:38;;;;;;;4.75;2.83;;;20.10;99.90;;;;;;4975364;28;20066;-77
2023/06/13 07:08:04;;;;;;;4.95;3.03;;;20.60;99.90;;;;;;4982756;28;20066;-76
2023/06/13 07:10:31;;;;;;;8.45;3.00;;;20.70;99.90;;;;;;4994683;28;20370;-77
2023/06/13 07:12:57;;;;;;;6.03;2.90;;;20.40;99.90;;;;;;4994898;28;20033;-77
2023/06/13 07:15:23;;;;;;;5.70;2.85;;;20.40;99.90;;;;;;4994094;28;20545;-76
2023/06/13 07:17:48;;;;;;;3.45;2.80;;;20.20;99.90;;;;;;4994587;28;20109;-78
2023/06/13 07:20:15;;;;;;;6.88;2.97;;;20.20;99.90;;;;;;4994479;28;20030;-76
2023/06/13 07:22:40;;;;;;;6.78;3.00;;;20.30;99.90;;;;;;4994514;28;20027;-76
2023/06/13 07:25:07;;;;;;;4.72;2.83;;;20.60;99.90;;;;;;4994710;28;20019;-76
2023/06/13 07:27:32;;;;;;;8.38;3.10;;;20.40;99.90;;;;;;4994369;28;20355;-77
2023/06/13 07:29:58;;;;;;;7.85;3.78;;;20.50;99.90;;;;;;4994335;28;20041;-77
2023/06/13 07:32:24;;;;;;;4.22;3.08;;;20.50;99.90;;;;;;4994191;28;20030;-77
2023/06/13 07:34:50;;;;;;;6.32;3.50;;;20.80;99.90;;;;;;4993988;28;20073;-76
2023/06/13 07:37:16;;;;;;;8.95;3.38;;;20.80;99.90;;;;;;4994305;28;20393;-77
2023/06/13 07:39:41;;;;;;;4.45;2.83;;;21.10;99.90;;;;;;4993989;28;20019;-77
2023/06/13 07:42:07;;;;;;;5.15;2.97;;;21.10;99.90;;;;;;4994430;28;20496;-78
2023/06/13 07:44:33;;;;;;;8.98;3.22;;;21.50;99.90;;;;;;4994024;28;20027;-77
2023/06/13 07:47:00;;;;;;;5.22;2.88;;;21.50;99.90;;;;;;4976622;28;20038;-76
2023/06/13 07:49:26;;;;;;;6.10;3.35;;;21.60;99.90;;;;;;4993833;28;20359;-77
2023/06/13 07:51:51;;;;;;;5.38;3.22;;;21.70;99.90;;;;;;4994079;28;20129;-78
2023/06/13 07:54:17;;;;;;;8.52;3.45;;;21.60;99.90;;;;;;4991877;28;20113;-77
2023/06/13 07:56:44;;;;;;;5.30;2.40;;;21.20;99.90;;;;;;4994193;28;20044;-77
2023/06/13 07:59:10;;;;;;;5.03;3.13;;;21.10;99.90;;;;;;4993713;28;20026;-78
2023/06/13 08:01:36;;;;;;;4.30;2.70;;;20.50;99.90;;;;;;4993703;28;20053;-77
2023/06/13 08:04:03;;;;;;;6.00;2.75;;;20.30;99.90;;;;;;4993496;28;20022;-77
2023/06/13 08:06:30;;;;;;;4.88;2.95;;;20.10;99.90;;;;;;4993667;28;20026;-77
2023/06/13 08:08:56;;;;;;;6.85;3.30;;;20.60;99.90;;;;;;4993429;28;20133;-77
2023/06/13 08:11:21;;;;;;;6.50;3.30;;;21.00;99.90;;;;;;4993479;28;20117;-77
2023/06/13 08:13:47;;;;;;;4.97;2.97;;;20.70;99.90;;;;;;4993785;28;20022;-77
2023/06/13 08:16:13;;;;;;;4.45;2.95;;;21.10;99.90;;;;;;4976035;28;20533;-77
2023/06/13 08:18:39;;;;;;;6.07;2.85;;;21.20;99.90;;;;;;4993258;28;20050;-77
2023/06/13 08:21:05;;;;;;;6.50;3.10;;;21.00;99.40;;;;;;4993307;28;20037;-76
2023/06/13 08:23:31;;;;;;;4.47;2.38;;;20.80;99.90;;;;;;4993366;28;20436;-76
2023/06/13 08:25:57;;;;;;;4.00;2.75;;;21.40;99.90;;;;;;4993305;28;20113;-76
2023/06/13 08:28:23;;;;;;;4.65;2.60;;;21.60;99.90;;;;;;4992681;28;20114;-76
2023/06/13 08:30:49;;;;;;;3.22;2.47;;;22.00;99.90;;;;;;4985824;28;20026;-76
2023/06/13 08:33:15;;;;;;;4.28;2.60;;;22.00;99.70;;;;;;4993186;28;20061;-77
2023/06/13 08:35:42;;;;;;;5.32;2.70;;;21.90;99.30;;;;;;4975904;28;20041;-77
2023/06/13 08:38:08;;;;;;;4.40;2.88;;;21.70;99.90;;;;;;4992723;28;20038;-77
2023/06/13 08:40:34;;;;;;;5.18;2.50;;;21.90;99.90;;;;;;4992958;28;20030;-77
2023/06/13 08:43:00;;;;;;;5.53;2.00;;;21.80;99.90;;;;;;4975388;28;20026;-77
2023/06/13 08:45:27;;;;;;;6.35;2.83;;;21.90;98.70;;;;;;4992960;28;20030;-76
2023/06/13 08:47:53;;;;;;;3.95;2.45;;;21.80;98.60;;;;;;4992422;28;20043;-77
2023/06/13 08:50:24;;;;;;;10.48;2.85;;;22.30;99.90;;;;;;4993064;28;20482;-77
2023/06/13 08:52:52;;;;;;;4.10;2.42;;;22.50;97.80;;;;;;4992458;28;20030;-76
2023/06/13 08:55:22;;;;;;;3.28;1.95;;;22.30;96.00;;;;;;4975610;28;20031;-76
2023/06/13 08:57:52;;;;;;;3.97;2.17;;;22.30;96.20;;;;;;4992921;28;20088;-77
2023/06/13 09:00:19;;;;;;;3.13;1.80;;;22.40;96.50;;;;;;4992758;28;20038;-77
2023/06/13 09:02:46;;;;;;;3.70;2.08;;;22.60;95.90;;;;;;4988205;28;20019;-77
2023/06/13 09:05:15;;;;;;;3.40;2.13;;;22.40;93.00;;;;;;4984605;28;20453;-76
2023/06/13 09:07:45;;;;;;;4.10;2.05;;;22.30;96.60;;;;;;4979362;28;20146;-77
2023/06/13 09:10:12;;;;;;;4.00;2.10;;;22.50;92.50;;;;;;4992412;28;20066;-77
2023/06/13 09:12:43;;;;;;;5.28;2.20;;;22.30;93.80;;;;;;4992449;28;20018;-76
2023/06/13 09:15:10;;;;;;;3.28;2.03;;;22.40;90.30;;;;;;4992197;28;20566;-76
2023/06/13 09:17:36;;;;;;;6.45;2.05;;;22.40;93.80;;;;;;4992236;28;20035;-78
2023/06/13 09:20:05;;;;;;;3.75;1.90;;;22.50;92.20;;;;;;4992800;28;20027;-76
2023/06/13 09:22:33;;;;;;;5.95;1.67;;;22.50;91.30;;;;;;4991972;28;20080;-77
2023/06/13 09:25:00;;;;;;;3.15;1.92;;;22.50;89.80;;;;;;4992794;28;20429;-76
2023/06/13 09:27:27;;;;;;;3.50;1.48;;;22.40;91.70;;;;;;4992712;28;20023;-77
2023/06/13 09:29:53;;;;;;;4.13;2.30;;;22.50;90.90;;;;;;4992341;28;20026;-77
2023/06/13 09:32:20;;;;;;;2.67;1.60;;;22.50;93.30;;;;;;4992813;28;20061;-76
2023/06/13 09:34:48;;;;;;;3.05;2.00;;;22.90;92.30;;;;;;4992454;28;20531;-77
2023/06/13 09:37:15;;;;;;;1.98;1.60;;;22.60;92.20;;;;;;4992379;28;20034;-76
2023/06/13 09:39:50;;;;;;;2.55;1.40;;;22.80;91.20;;;;;;4992118;28;20034;-77
2023/06/13 09:42:21;;;;;;;4.65;1.75;;;22.80;91.40;;;;;;4974998;28;20051;-77
2023/06/13 09:44:51;;;;;;;3.40;1.73;;;23.00;88.70;;;;;;4992591;28;20022;-77
2023/06/13 09:47:22;;;;;;;2.22;1.80;;;23.00;89.20;;;;;;4992208;28;20029;-77
2023/06/13 09:49:55;;;;;;;2.45;1.70;;;22.80;87.80;;;;;;4992414;28;20279;-77
2023/06/13 09:52:25;;;;;;;2.92;1.60;;;22.80;89.70;;;;;;4992565;28;20123;-77
2023/06/13 09:54:52;;;;;;;7.53;1.75;;;22.90;88.40;;;;;;4992423;28;20026;-76
2023/06/13 09:57:22;;;;;;;2.50;1.42;;;22.90;87.70;;;;;;4992157;28;20050;-76
2023/06/13 09:59:50;;;;;;;4.03;2.33;;;22.90;86.30;;;;;;4992409;28;20050;-76
2023/06/13 10:02:17;;;;;;;3.42;1.17;;;22.90;91.70;;;;;;4996293;28;20026;-77
2023/06/13 10:04:44;;;;;;;4.80;2.17;;;23.30;89.70;;;;;;4995995;28;20034;-76
2023/06/13 10:07:11;;;;;;;2.08;1.60;;;23.30;89.10;;;;;;4995788;28;20030;-76
2023/06/13 10:09:38;;;;;;;2.65;1.63;;;23.20;85.90;;;;;;4983131;28;20026;-76
2023/06/13 10:12:14;;;;;;;2.58;1.60;;;23.10;82.80;;;;;;4995814;28;20113;-77
2023/06/13 10:14:42;;;;;;;3.42;1.80;;;23.00;84.00;;;;;;4995975;28;20128;-76
2023/06/13 10:17:11;;;;;;;1.90;1.50;;;22.90;86.40;;;;;;4994412;28;20156;-77
2023/06/13 10:19:39;;;;;;;3.15;1.40;;;22.90;88.70;;;;;;4996009;28;20117;-77
2023/06/13 10:22:09;;;;;;;2.00;1.52;;;22.80;82.90;;;;;;4995442;28;20466;-77
2023/06/13 10:24:36;;;;;;;2.63;1.60;;;23.00;85.60;;;;;;4995760;28;20521;-78
2023/06/13 10:27:04;;;;;;;2.22;1.52;;;23.00;85.00;;;;;;4995414;28;20022;-77
2023/06/13 10:29:53;;;;;;;3.92;1.35;;;23.10;82.90;;;;;;4978160;28;20157;-76
2023/06/13 10:32:46;;;;;;;3.70;1.90;;;23.20;83.80;;;;;;4897755;29;20036;-77
2023/06/13 10:35:49;;;;;;;3.08;2.08;;;22.90;79.90;;;;;;4897686;29;20033;-77
2023/06/13 10:38:33;;;;;;;2.97;1.70;;;23.20;78.20;;;;;;4896885;29;20471;-76
2023/06/13 10:41:18;;;;;;;2.53;1.48;;;23.20;77.20;;;;;;4897130;29;20370;-76
2023/06/13 10:43:55;;;;;;;3.20;1.70;;;23.10;83.40;;;;;;4897333;29;20045;-76
2023/06/13 10:46:21;;;;;;;5.10;1.90;;;23.10;81.50;;;;;;4897192;29;20028;-75
2023/06/13 10:48:54;;;;;;;2.78;1.60;;;23.10;80.40;;;;;;4897238;29;20498;-75
2023/06/13 10:51:21;;;;;;;2.25;1.60;;;23.20;79.90;;;;;;4881810;29;20161;-75
2023/06/13 10:54:03;;;;;;;3.13;2.15;;;23.00;77.50;;;;;;4897359;29;20025;-74
2023/06/13 10:56:33;;;;;;;4.35;2.22;;;23.10;81.10;;;;;;4897053;29;20049;-75
2023/06/13 10:59:16;;;;;;;4.55;1.70;;;23.20;80.10;;;;;;4897129;29;20158;-76
2023/06/13 11:01:43;;;;;;;4.68;1.98;;;23.20;81.00;;;;;;4897101;29;20080;-76
2023/06/13 11:04:12;;;;;;;3.42;1.75;;;23.10;80.60;;;;;;4897265;29;20020;-75
2023/06/13 11:06:41;;;;;;;2.55;1.45;;;23.30;80.30;;;;;;4897372;29;20056;-76
2023/06/13 11:09:17;;;;;;;6.72;2.20;;;23.50;81.30;;;;;;4933137;28;20085;-74
2023/06/13 11:11:55;;;;;;;3.13;1.85;;;23.50;79.00;;;;;;4994153;28;20029;-76
2023/06/13 11:14:36;;;;;;;3.83;1.63;;;23.50;78.40;;;;;;4982617;28;20386;-75
2023/06/13 11:17:03;;;;;;;3.05;1.60;;;23.30;78.60;;;;;;4994270;28;20482;-76
2023/06/13 11:19:32;;;;;;;2.88;1.95;;;23.40;81.00;;;;;;4994713;28;20061;-76
2023/06/13 11:22:03;;;;;;;2.88;1.63;;;23.30;79.20;;;;;;4980673;28;20089;-75
2023/06/13 11:24:32;;;;;;;2.75;1.95;;;23.30;80.30;;;;;;4994800;28;20031;-76
2023/06/13 11:27:03;;;;;;;3.15;1.60;;;23.40;78.70;;;;;;4994161;28;20041;-76
2023/06/13 11:29:32;;;;;;;3.38;1.85;;;23.30;78.50;;;;;;4994556;28;20069;-75
2023/06/13 11:32:01;;;;;;;2.90;1.70;;;23.40;81.30;;;;;;4994427;28;20042;-77
2023/06/13 11:34:43;;;;;;;2.72;1.60;;;23.40;79.60;;;;;;4994439;28;20037;-78
2023/06/13 11:37:28;;;;;;;3.38;2.05;;;23.50;82.70;;;;;;4994521;28;20537;-77
2023/06/13 11:39:59;;;;;;;3.70;1.75;;;23.40;77.60;;;;;;4993643;28;20026;-77
2023/06/13 11:42:25;;;;;;;3.33;1.85;;;23.60;81.20;;;;;;4993873;28;20581;-76
2023/06/13 11:44:52;;;;;;;5.65;2.00;;;23.60;77.10;;;;;;4994351;28;20466;-75
2023/06/13 11:47:19;;;;;;;7.45;1.88;;;23.90;96.60;;;;;;4994230;28;20034;-74
2023/06/13 11:49:57;;;;;;;4.68;1.92;;;23.90;82.30;;;;;;4993745;28;20390;-78
2023/06/13 11:52:24;;;;;;;5.65;1.92;;;;;;;;;;4994080;28;20054;-76
2023/06/13 11:54:50;;;;;;;5.32;2.10;;;;;;;;;;4993556;28;20093;-73
2023/06/13 11:57:19;;;;;;;3.85;1.83;;;;;;;;;;4993999;28;20474;-77
2023/06/13 11:59:45;;;;;;;3.28;1.85;;;23.80;75.50;;;;;;4975629;28;20026;-78
2023/06/13 12:02:15;;;;;;;4.80;1.65;;;23.90;78.40;;;;;;4993701;28;20033;-77
2023/06/13 12:04:42;;;;;;;2.35;1.60;;;;;;;;;;4993607;28;20398;-77
2023/06/13 12:07:08;;;;;;;5.07;1.95;;;24.30;78.80;;;;;;4993645;28;20054;-77
2023/06/13 12:09:34;;;;;;;5.50;2.05;;;24.30;78.10;;;;;;4993275;28;20407;-76
2023/06/13 12:12:02;;;;;;;5.70;1.90;;;24.30;80.30;;;;;;4993605;28;20034;-78
2023/06/13 12:14:30;;;;;;;4.60;2.38;;;24.40;76.80;;;;;;4993695;28;20017;-78
2023/06/13 12:16:56;;;;;;;2.08;1.45;;;24.30;73.90;;;;;;4993153;28;20054;-76
2023/06/13 12:19:22;;;;;;;7.05;2.53;;;24.30;75.30;;;;;;4980933;28;20034;-77
2023/06/13 12:21:55;;;;;;;4.72;1.58;;;24.30;75.90;;;;;;4993334;28;20054;-77
2023/06/13 12:24:25;;;;;;;3.15;1.75;;;24.40;75.00;;;;;;4993132;28;20030;-78
2023/06/13 12:26:52;;;;;;;2.85;1.80;;;24.50;73.90;;;;;;4993271;28;20081;-78
2023/06/13 12:29:23;;;;;;;3.08;1.70;;;24.60;76.10;;;;;;4993312;28;20022;-77
2023/06/13 12:31:56;;;;;;;6.72;2.05;;;24.80;76.40;;;;;;4975917;28;20050;-78
2023/06/13 12:34:28;;;;;;;4.47;1.50;;;24.70;73.90;;;;;;4993348;28;20030;-77
2023/06/13 12:37:09;;;;;;;4.18;2.08;;;24.90;91.60;;;;;;4993103;28;20120;-77
2023/06/13 12:39:35;;;;;;;5.15;2.20;;;25.10;90.10;;;;;;4993042;28;20081;-76
2023/06/13 12:42:07;;;;;;;3.15;1.85;;;24.80;80.60;;;;;;4992751;28;20026;-77
2023/06/13 12:44:33;;;;;;;;;;;24.30;71.00;;;;;;4993563;28;20026;-77
2023/06/13 12:47:03;;;;;;;4.72;1.80;;;24.50;76.20;;;;;;4992920;28;20289;-77
2023/06/13 12:49:37;;;;;;;5.95;2.58;;;24.40;74.60;;;;;;4993182;28;20053;-77
2023/06/13 12:52:05;;;;;;;11.55;1.75;;;24.50;74.60;;;;;;4992863;28;20032;-79
2023/06/13 12:54:35;;;;;;;6.55;2.05;;;24.30;73.60;;;;;;4990114;28;20026;-78
2023/06/13 12:57:06;;;;;;;7.35;2.28;;;24.30;73.70;;;;;;4982980;28;20112;-78